Time;durP1;ratioP1;P1;durP2;ratioP2;P2;SDS_P1;SDS_P2;PMS_P1;PMS_P2;Temp;Humidity;BMP_temperature;BMP_pressure;BME280_temperature;BME280_humidity;BME280_pressure;Samples;Min_cycle;Max_cycle;Signal;HPM_P1;HPM_P2
2021/12/30 00:01:37;;;;;;;72.90;37.70;;;;;;;-4.42;82.18;99583.95;104495;1318;138117;-60
2021/12/30 00:04:05;;;;;;;82.00;38.80;;;;;;;-4.45;82.12;99582.14;104508;1318;23059;-60
2021/12/30 00:06:40;;;;;;;66.60;36.50;;;;;;;-4.48;82.06;99583.17;104571;1318;22502;-60
2021/12/30 00:09:09;;;;;;;70.50;34.80;;;;;;;-4.51;82.08;99589.17;104516;1318;138522;-60
2021/12/30 00:11:37;;;;;;;65.90;33.70;;;;;;;-4.52;82.21;99589.93;104639;1318;22427;-60
2021/12/30 00:14:05;;;;;;;75.90;35.10;;;;;;;-4.50;82.35;99592.77;104487;1318;138269;-61
2021/12/30 00:16:33;;;;;;;72.80;36.50;;;;;;;-4.48;82.41;99591.55;104621;1318;22475;-60
2021/12/30 00:19:03;;;;;;;76.50;34.60;;;;;;;-4.48;82.55;99593.73;104548;1318;22535;-60
2021/12/30 00:21:30;;;;;;;71.70;34.90;;;;;;;-4.45;82.58;99598.36;104500;1318;138713;-61
2021/12/30 00:24:00;;;;;;;76.60;35.90;;;;;;;-4.41;82.68;99599.73;104633;1317;23117;-61
2021/12/30 00:26:28;;;;;;;71.60;36.50;;;;;;;-4.37;82.63;99604.18;104405;1318;138388;-61
2021/12/30 00:28:56;;;;;;;79.50;39.10;;;;;;;-4.36;82.66;99605.22;104660;1318;22502;-60
2021/12/30 00:31:25;;;;;;;78.10;36.90;;;;;;;-4.34;82.58;99606.29;104649;1317;137567;-61
2021/12/30 00:33:53;;;;;;;72.10;35.60;;;;;;;-4.33;82.61;99607.58;104530;1318;22499;-61
2021/12/30 00:36:21;;;;;;;74.50;35.60;;;;;;;-4.32;82.54;99605.52;104566;1317;22579;-60
2021/12/30 00:38:49;;;;;;;65.10;33.50;;;;;;;-4.32;82.39;99602.85;104444;1318;138300;-60
2021/12/30 00:41:18;;;;;;;74.90;34.90;;;;;;;-4.33;82.41;99597.27;101488;1318;24215;-60
2021/12/30 00:43:46;;;;;;;72.20;35.90;;;;;;;-4.33;82.25;99602.62;101138;1317;138489;-59
2021/12/30 00:46:14;;;;;;;69.00;32.70;;;;;;;-4.33;82.32;99597.96;101116;1318;22591;-59
2021/12/30 00:48:42;;;;;;;67.50;33.80;;;;;;;-4.32;82.30;99594.77;101091;1317;25232;-59
2021/12/30 00:51:17;;;;;;;72.30;35.00;;;;;;;-4.34;82.12;99587.96;101080;1318;139576;-59
2021/12/30 00:53:46;;;;;;;69.90;32.60;;;;;;;-4.35;82.20;99584.44;101154;1318;25022;-60
2021/12/30 00:56:13;;;;;;;69.40;32.50;;;;;;;-4.36;82.24;99585.44;101070;1317;139168;-59
2021/12/30 00:58:42;;;;;;;74.40;33.30;;;;;;;-4.38;82.15;99588.32;104512;1319;23360;-60
2021/12/30 01:01:09;;;;;;;66.20;33.40;;;;;;;-4.41;82.24;99589.50;104653;1318;22285;-61
2021/12/30 01:03:38;;;;;;;63.50;33.00;;;;;;;-4.40;82.38;99588.44;104421;1318;137253;-61
2021/12/30 01:06:06;;;;;;;65.30;34.70;;;;;;;-4.38;82.43;99587.02;104652;1318;22457;-61
2021/12/30 01:08:33;;;;;;;71.40;35.50;;;;;;;-4.36;82.58;99587.73;104492;1319;137444;-61
2021/12/30 01:11:05;;;;;;;66.50;35.50;;;;;;;-4.34;82.29;99586.68;101969;1317;22601;-60
2021/12/30 01:13:38;;;;;;;71.80;38.70;;;;;;;-4.34;82.28;99589.34;101021;1318;137364;-59
2021/12/30 01:16:17;;;;;;;67.40;34.00;;;;;;;-4.36;82.16;99587.88;101286;1317;23850;-61
2021/12/30 01:21:25;;;;;;;69.10;36.00;;;;;;;-4.39;82.24;99587.98;101149;1318;137581;-60
2021/12/30 01:23:54;;;;;;;76.50;35.20;;;;;;;-4.41;82.24;99591.73;101167;1318;24855;-59
2021/12/30 01:26:22;;;;;;;78.70;35.10;;;;;;;-4.42;82.19;99590.09;104511;1318;138072;-61
2021/12/30 01:28:50;;;;;;;63.60;32.50;;;;;;;-4.43;82.23;99591.15;104634;1318;23145;-61
2021/12/30 01:31:18;;;;;;;63.80;32.20;;;;;;;-4.44;82.30;99589.02;104464;1318;139027;-61
2021/12/30 01:33:47;;;;;;;72.60;34.10;;;;;;;-4.41;82.44;99594.82;104563;1318;22467;-59
2021/12/30 01:36:15;;;;;;;67.70;33.20;;;;;;;-4.39;82.27;99591.98;104554;1318;22559;-58
2021/12/30 01:38:48;;;;;;;75.80;35.50;;;;;;;-4.35;82.41;99596.27;104529;1317;140332;-58
2021/12/30 01:41:16;;;;;;;66.10;32.00;;;;;;;-4.31;82.49;99590.23;104606;1316;22454;-59
2021/12/30 01:43:45;;;;;;;76.70;33.60;;;;;;;-4.28;82.43;99583.89;104513;1318;138037;-59
2021/12/30 01:46:13;;;;;;;74.80;36.20;;;;;;;-4.26;82.44;99582.04;104649;1317;23149;-59
2021/12/30 01:48:42;;;;;;;71.10;34.70;;;;;;;-4.24;82.30;99583.29;104586;1318;22504;-59
2021/12/30 01:51:09;;;;;;;67.90;32.90;;;;;;;-4.24;82.38;99583.51;104507;1318;137993;-59
2021/12/30 01:53:38;;;;;;;70.90;34.70;;;;;;;-4.25;82.23;99583.06;104554;1318;22531;-58
2021/12/30 01:56:06;;;;;;;69.50;34.50;;;;;;;-4.25;82.25;99584.60;104415;1318;139159;-59
2021/12/30 01:58:36;;;;;;;68.20;33.20;;;;;;;-4.25;82.26;99584.98;104580;1318;23110;-60
2021/12/30 02:01:04;;;;;;;67.00;33.80;;;;;;;-4.27;82.12;99589.98;104637;1318;22523;-59
2021/12/30 02:03:35;;;;;;;65.20;35.30;;;;;;;-4.29;82.22;99594.55;104466;1318;139105;-59
2021/12/30 02:06:03;;;;;;;65.50;31.80;;;;;;;-4.29;82.32;99595.69;104516;1318;22490;-61
2021/12/30 02:08:32;;;;;;;70.10;34.80;;;;;;;-4.30;82.20;99600.33;104403;1318;138895;-60
2021/12/30 02:11:00;;;;;;;69.00;32.20;;;;;;;-4.29;82.09;99607.55;104507;1318;22519;-59
2021/12/30 02:13:33;;;;;;;66.60;32.30;;;;;;;-4.28;82.31;99610.29;104446;1318;138320;-59
2021/12/30 02:16:02;;;;;;;63.30;31.30;;;;;;;-4.26;82.26;99612.89;103408;1315;22878;-59
2021/12/30 02:18:36;;;;;;;63.70;32.30;;;;;;;-4.24;82.28;99616.46;101052;1318;23946;-59
2021/12/30 02:21:04;;;;;;;63.80;30.10;;;;;;;-4.23;82.23;99616.27;100869;1318;138248;-60
2021/12/30 02:23:34;;;;;;;68.10;30.80;;;;;;;-4.20;82.38;99618.31;101133;1317;22600;-60
2021/12/30 02:26:14;;;;;;;65.00;28.60;;;;;;;-4.18;82.34;99621.43;101025;1317;139586;-60
2021/12/30 02:28:42;;;;;;;67.40;31.80;;;;;;;-4.16;82.51;99618.10;101099;1317;23937;-60
2021/12/30 02:31:24;;;;;;;64.00;32.20;;;;;;;-4.17;82.28;99619.06;101193;1316;25254;-59
2021/12/30 02:33:55;;;;;;;69.10;32.90;;;;;;;-4.19;82.19;99613.11;101045;1317;137343;-60
2021/12/30 02:36:28;;;;;;;73.10;35.30;;;;;;;-4.18;82.32;99612.83;104661;1317;23081;-61
2021/12/30 02:39:06;;;;;;;64.20;32.10;;;;;;;-4.20;82.20;99613.23;104504;1318;138614;-60
2021/12/30 02:41:36;;;;;;;67.30;31.70;;;;;;;-4.23;82.02;99613.11;104644;1317;22478;-60
2021/12/30 02:44:04;;;;;;;68.50;32.50;;;;;;;-4.25;82.12;99620.45;104516;1318;137813;-60
2021/12/30 02:46:34;;;;;;;64.10;31.30;;;;;;;-4.27;82.12;99619.54;104579;1318;23468;-60
2021/12/30 02:49:02;;;;;;;73.00;35.00;;;;;;;-4.29;82.13;99616.01;104655;1318;23286;-60
2021/12/30 02:51:30;;;;;;;72.90;35.30;;;;;;;-4.29;82.07;99616.40;104483;1318;140525;-60
2021/12/30 02:53:58;;;;;;;68.50;32.30;;;;;;;-4.31;82.10;99617.65;104593;1318;22479;-61
2021/12/30 02:56:26;;;;;;;69.20;33.70;;;;;;;-4.33;82.10;99623.00;104464;1318;141272;-61
2021/12/30 02:58:55;;;;;;;76.60;35.80;;;;;;;-4.33;82.22;99623.60;104533;1318;22468;-61
2021/12/30 03:01:29;;;;;;;74.10;32.70;;;;;;;-4.33;82.10;99620.05;104621;1317;22487;-61
2021/12/30 03:04:00;;;;;;;73.00;31.70;;;;;;;-4.33;82.16;99621.20;104541;1317;138006;-61
2021/12/30 03:06:28;;;;;;;71.40;35.10;;;;;;;-4.33;82.15;99631.14;104545;1318;22449;-61
2021/12/30 03:08:56;;;;;;;81.70;35.70;;;;;;;-4.31;82.40;99637.50;104455;1318;138082;-61
2021/12/30 03:11:24;;;;;;;84.60;41.00;;;;;;;-4.28;82.41;99641.84;104612;1318;22420;-60
2021/12/30 03:13:54;;;;;;;95.30;42.70;;;;;;;-4.26;82.40;99646.23;104452;1318;138161;-61
2021/12/30 03:16:29;;;;;;;95.80;41.80;;;;;;;-4.24;82.46;99646.41;104513;1318;23462;-61
2021/12/30 03:18:58;;;;;;;95.50;42.20;;;;;;;-4.23;82.41;99650.05;104631;1316;22498;-61
2021/12/30 03:21:27;;;;;;;89.30;41.70;;;;;;;-4.23;82.38;99656.73;104386;1318;137959;-61
2021/12/30 03:23:57;;;;;;;81.20;38.90;;;;;;;-4.22;82.44;99663.39;104730;1318;22520;-60
2021/12/30 03:26:25;;;;;;;85.30;38.10;;;;;;;-4.21;82.39;99666.69;102741;1318;137525;-60
2021/12/30 03:28:53;;;;;;;83.60;38.70;;;;;;;-4.22;82.39;99671.36;101075;1317;26083;-59
2021/12/30 03:31:21;;;;;;;92.90;42.60;;;;;;;-4.22;82.42;99673.86;101165;1318;26081;-60
2021/12/30 03:33:49;;;;;;;80.90;36.70;;;;;;;-4.24;82.30;99675.34;100928;1318;138110;-60
2021/12/30 03:36:18;;;;;;;87.90;37.50;;;;;;;-4.26;82.47;99675.13;104472;1318;23172;-60
2021/12/30 03:38:49;;;;;;;81.10;36.20;;;;;;;-4.26;82.36;99674.23;104479;1318;140415;-61
2021/12/30 03:41:23;;;;;;;84.30;37.30;;;;;;;-4.25;82.54;99674.88;104638;1316;23312;-60
2021/12/30 03:43:51;;;;;;;81.30;36.70;;;;;;;-4.24;82.55;99672.98;104530;1318;138520;-61
2021/12/30 03:46:19;;;;;;;76.10;33.70;;;;;;;-4.23;82.73;99669.73;102265;1318;25459;-59
2021/12/30 03:48:48;;;;;;;74.20;34.50;;;;;;;-4.20;82.69;99673.17;104557;1318;22509;-61
2021/12/30 03:51:22;;;;;;;84.50;37.10;;;;;;;-4.19;82.60;99675.64;104501;1318;139132;-61
2021/12/30 03:53:52;;;;;;;75.00;34.60;;;;;;;-4.18;82.43;99677.20;104615;1318;23026;-61
2021/12/30 03:56:23;;;;;;;76.30;36.00;;;;;;;-4.18;82.62;99679.22;102857;1318;137379;-60
2021/12/30 03:58:51;;;;;;;72.50;35.60;;;;;;;-4.17;82.48;99678.98;101161;1318;22594;-60
2021/12/30 04:01:21;;;;;;;82.00;38.30;;;;;;;-4.16;82.38;99686.37;104633;1318;23043;-60
2021/12/30 04:03:49;;;;;;;76.30;34.60;;;;;;;-4.18;82.30;99693.23;104567;1318;138792;-61
2021/12/30 04:06:17;;;;;;;76.60;36.10;;;;;;;-4.18;82.39;99698.40;104627;1317;22472;-60
2021/12/30 04:08:45;;;;;;;76.20;36.90;;;;;;;-4.19;82.48;99700.34;104452;1318;138787;-60
2021/12/30 04:11:12;;;;;;;81.60;36.30;;;;;;;-4.19;82.37;99699.11;104641;1318;22476;-61
2021/12/30 04:13:40;;;;;;;74.80;36.90;;;;;;;-4.21;82.47;99696.41;104557;1318;137841;-60
2021/12/30 04:16:08;;;;;;;74.40;36.70;;;;;;;-4.22;82.42;99694.80;104634;1318;22486;-60
2021/12/30 04:18:37;;;;;;;80.80;35.30;;;;;;;-4.23;82.24;99698.83;104592;1318;23222;-60
2021/12/30 04:21:05;;;;;;;74.40;33.30;;;;;;;-4.24;82.37;99701.07;104466;1318;138115;-61
2021/12/30 04:23:32;;;;;;;72.50;34.90;;;;;;;-4.24;82.32;99704.04;104567;1318;22958;-60
2021/12/30 04:26:00;;;;;;;69.80;32.80;;;;;;;-4.24;82.42;99710.91;104521;1317;138954;-60
2021/12/30 04:28:28;;;;;;;70.50;32.00;;;;;;;-4.23;82.45;99708.53;104555;1318;22541;-61
2021/12/30 04:30:56;;;;;;;78.00;35.10;;;;;;;-4.21;82.40;99712.09;104478;1321;22514;-60
2021/12/30 04:33:26;;;;;;;67.80;32.80;;;;;;;-4.19;82.44;99719.99;104535;1317;139793;-60
2021/12/30 04:35:56;;;;;;;71.80;31.80;;;;;;;-4.18;82.35;99725.70;104641;1318;22479;-60
2021/12/30 04:38:24;;;;;;;68.00;31.10;;;;;;;-4.17;82.34;99727.41;104525;1313;139110;-61
2021/12/30 04:40:52;;;;;;;70.60;31.10;;;;;;;-4.16;82.30;99727.44;104671;1318;22429;-60
2021/12/30 04:43:21;;;;;;;74.60;33.90;;;;;;;-4.14;82.33;99732.77;104639;1316;22315;-60
2021/12/30 04:45:48;;;;;;;66.60;32.40;;;;;;;-4.14;82.31;99731.70;104538;1317;138497;-60
2021/12/30 04:48:17;;;;;;;60.00;28.50;;;;;;;-4.15;82.15;99733.00;104701;1316;22472;-61
2021/12/30 04:50:46;;;;;;;79.90;35.30;;;;;;;-4.16;82.19;99733.48;104600;1318;137697;-60
2021/12/30 04:53:14;;;;;;;67.70;33.50;;;;;;;-4.16;82.18;99738.52;104696;1316;22493;-60
2021/12/30 04:55:43;;;;;;;79.80;33.20;;;;;;;-4.19;82.21;99743.04;104603;1317;140271;-58
2021/12/30 04:58:12;;;;;;;70.20;33.40;;;;;;;-4.19;82.10;99747.00;104750;1316;22515;-59
2021/12/30 05:00:39;;;;;;;60.40;28.70;;;;;;;-4.20;82.16;99752.58;104658;1318;23176;-59
2021/12/30 05:03:13;;;;;;;72.50;32.80;;;;;;;-4.19;82.19;99754.11;104654;1316;139139;-58
2021/12/30 05:05:50;;;;;;;59.50;29.50;;;;;;;-4.19;82.19;99758.36;104743;1318;22922;-58
2021/12/30 05:08:19;;;;;;;67.50;32.70;;;;;;;-4.19;82.18;99753.69;104720;1316;139011;-59
2021/12/30 05:10:49;;;;;;;62.90;29.70;;;;;;;-4.18;82.17;99752.58;104742;1316;22325;-59
2021/12/30 05:13:17;;;;;;;66.20;32.80;;;;;;;-4.18;82.27;99753.48;104646;1315;22497;-59
2021/12/30 05:15:47;;;;;;;61.50;30.40;;;;;;;-4.17;82.33;99754.25;104591;1316;138424;-59
2021/12/30 05:18:18;;;;;;;64.00;29.70;;;;;;;-4.16;82.33;99755.30;104727;1316;22518;-59
2021/12/30 05:20:47;;;;;;;63.60;29.90;;;;;;;-4.15;82.23;99758.57;104576;1317;137436;-58
2021/12/30 05:23:15;;;;;;;65.40;31.80;;;;;;;-4.14;82.35;99762.06;104743;1317;22455;-58
2021/12/30 05:25:45;;;;;;;62.40;29.80;;;;;;;-4.15;82.53;99754.63;103757;1318;138172;-60
2021/12/30 05:28:13;;;;;;;67.50;32.70;;;;;;;-4.14;82.35;99754.45;101252;1315;25308;-59
2021/12/30 05:30:41;;;;;;;63.90;32.00;;;;;;;-4.14;82.49;99754.22;104607;1317;23313;-61
2021/12/30 05:33:10;;;;;;;65.20;33.10;;;;;;;-4.16;82.57;99752.98;104570;1316;137944;-61
2021/12/30 05:35:38;;;;;;;73.30;34.50;;;;;;;-4.15;82.60;99756.80;104689;1318;23268;-61
2021/12/30 05:38:06;;;;;;;71.60;33.20;;;;;;;-4.15;82.54;99753.42;104626;1316;138972;-60
2021/12/30 05:40:35;;;;;;;64.50;30.30;;;;;;;-4.15;82.51;99752.52;104673;1316;22440;-60
2021/12/30 05:43:02;;;;;;;65.80;29.10;;;;;;;-4.15;82.59;99760.17;104621;1316;22550;-60
2021/12/30 05:45:30;;;;;;;68.20;30.80;;;;;;;-4.15;82.51;99767.09;104552;1316;139870;-61
2021/12/30 05:47:58;;;;;;;64.40;30.90;;;;;;;-4.14;82.55;99768.29;104589;1317;22473;-60
2021/12/30 05:50:28;;;;;;;68.50;31.70;;;;;;;-4.16;82.67;99770.23;104555;1318;138217;-60
2021/12/30 05:52:55;;;;;;;69.50;32.40;;;;;;;-4.18;82.59;99775.19;104706;1316;22560;-60
2021/12/30 05:55:24;;;;;;;65.30;32.40;;;;;;;-4.17;82.76;99776.02;104815;1317;23176;-61
2021/12/30 05:57:54;;;;;;;70.90;32.90;;;;;;;-4.16;82.93;99776.09;104454;1316;139035;-60
2021/12/30 06:00:25;;;;;;;71.30;31.80;;;;;;;-4.14;82.89;99778.20;104621;1317;22429;-60
2021/12/30 06:02:53;;;;;;;69.60;30.50;;;;;;;-4.14;82.84;99780.44;104534;1316;138344;-60
2021/12/30 06:05:21;;;;;;;62.40;28.40;;;;;;;-4.14;82.86;99783.13;104602;1318;22591;-65
2021/12/30 06:07:49;;;;;;;56.60;27.60;;;;;;;-4.13;82.90;99789.58;104607;1318;138322;-66
2021/12/30 06:10:17;;;;;;;55.90;27.20;;;;;;;-4.10;82.88;99796.75;104632;1318;22505;-66
2021/12/30 06:12:47;;;;;;;59.20;27.50;;;;;;;-4.09;82.94;99800.41;104658;1318;22384;-66
2021/12/30 06:15:15;;;;;;;64.60;28.30;;;;;;;-4.08;82.99;99805.55;104610;1317;138688;-67
2021/12/30 06:17:44;;;;;;;61.00;29.10;;;;;;;-4.09;82.84;99808.30;104711;1316;22456;-66
2021/12/30 06:20:23;;;;;;;61.30;29.90;;;;;;;-4.08;82.93;99813.17;104507;1317;139731;-66
2021/12/30 06:22:51;;;;;;;57.40;26.80;;;;;;;-4.07;82.99;99821.09;104751;1316;22376;-67
2021/12/30 06:25:19;;;;;;;66.60;33.00;;;;;;;-4.06;82.93;99821.66;104714;1317;22513;-66
2021/12/30 06:27:47;;;;;;;66.00;29.40;;;;;;;-4.05;83.07;99829.20;104516;1317;138051;-67
2021/12/30 06:30:15;;;;;;;66.00;31.70;;;;;;;-4.04;82.96;99828.38;104740;1317;22584;-68
2021/12/30 06:32:43;;;;;;;70.50;34.00;;;;;;;-4.03;82.98;99827.88;104583;1315;138169;-67
2021/12/30 06:35:11;;;;;;;73.30;34.20;;;;;;;-4.01;82.89;99829.35;104596;1318;22484;-65
2021/12/30 06:37:39;;;;;;;70.80;32.90;;;;;;;-4.04;82.88;99829.25;104547;1318;138782;-67
2021/12/30 06:40:09;;;;;;;76.90;32.60;;;;;;;-4.03;82.94;99830.40;104623;1316;23111;-67
2021/12/30 06:42:37;;;;;;;76.00;34.20;;;;;;;-4.04;82.96;99831.79;104703;1316;23685;-68
2021/12/30 06:45:05;;;;;;;66.20;32.70;;;;;;;-4.05;82.98;99832.78;104647;1318;138305;-68
2021/12/30 06:47:33;;;;;;;75.30;34.70;;;;;;;-4.05;83.09;99832.45;104591;1317;22408;-68
2021/12/30 06:50:02;;;;;;;72.10;34.00;;;;;;;-4.04;83.13;99827.73;104505;1318;139622;-69
2021/12/30 06:52:31;;;;;;;75.70;33.90;;;;;;;-4.04;83.29;99829.73;104597;1316;23026;-69
2021/12/30 06:54:58;;;;;;;77.40;34.90;;;;;;;-4.03;83.36;99824.41;104627;1316;22624;-68
2021/12/30 06:57:28;;;;;;;86.60;37.30;;;;;;;-4.04;83.34;99822.16;104427;1316;138120;-68
2021/12/30 06:59:57;;;;;;;87.40;38.70;;;;;;;-4.03;83.37;99821.50;104681;1316;22543;-68
2021/12/30 07:02:25;;;;;;;76.40;33.60;;;;;;;-4.04;83.47;99826.39;104552;1317;139266;-69
2021/12/30 07:04:53;;;;;;;80.90;36.50;;;;;;;-4.03;83.54;99824.59;104679;1316;22263;-68
2021/12/30 07:07:21;;;;;;;79.40;36.20;;;;;;;-4.04;83.43;99829.28;104713;1317;23359;-69
2021/12/30 07:09:49;;;;;;;72.90;31.90;;;;;;;-4.04;83.59;99833.54;104598;1316;138193;-67
2021/12/30 07:12:17;;;;;;;79.10;36.40;;;;;;;-4.03;83.57;99826.81;104609;1315;22509;-67
2021/12/30 07:14:46;;;;;;;72.90;34.20;;;;;;;-4.03;83.49;99827.77;104634;1316;139110;-66
2021/12/30 07:17:14;;;;;;;76.90;33.20;;;;;;;-4.05;83.58;99828.70;104709;1316;23514;-67
2021/12/30 07:19:42;;;;;;;76.90;36.20;;;;;;;-4.05;83.74;99831.52;104627;1317;139139;-67
2021/12/30 07:22:30;;;;;;;79.70;33.90;;;;;;;-4.05;83.54;99835.64;102919;1316;24222;-66
2021/12/30 07:25:17;;;;;;;76.50;34.60;;;;;;;-4.09;83.80;99829.98;101179;1317;22653;-66
2021/12/30 07:27:47;;;;;;;86.50;36.50;;;;;;;-4.07;83.98;99830.48;104583;1316;138014;-67
2021/12/30 07:30:16;;;;;;;85.90;36.50;;;;;;;-4.06;83.94;99829.82;104732;1317;22589;-67
2021/12/30 07:32:44;;;;;;;88.30;38.70;;;;;;;-4.06;84.04;99827.75;104695;1316;138882;-67
2021/12/30 07:35:13;;;;;;;88.60;40.20;;;;;;;-4.06;84.12;99831.05;104749;1317;22421;-65
2021/12/30 07:37:42;;;;;;;84.90;40.60;;;;;;;-4.04;84.27;99833.91;104705;1315;138073;-68
2021/12/30 07:40:10;;;;;;;86.60;38.30;;;;;;;-4.04;84.29;99833.84;104884;1316;22519;-68
2021/12/30 07:42:38;;;;;;;85.30;37.20;;;;;;;-4.03;84.44;99836.56;103840;1316;23860;-66
2021/12/30 07:45:07;;;;;;;79.00;36.30;;;;;;;-4.01;84.37;99833.98;101078;1315;138314;-65
2021/12/30 07:47:36;;;;;;;83.00;36.20;;;;;;;-4.04;84.36;99830.30;104663;1317;23346;-66
2021/12/30 07:50:05;;;;;;;78.30;33.90;;;;;;;-4.03;84.49;99834.00;104580;1318;139164;-66
2021/12/30 07:52:34;;;;;;;75.80;34.30;;;;;;;-4.04;84.50;99834.56;104664;1318;22423;-66
2021/12/30 07:55:04;;;;;;;73.80;31.10;;;;;;;-4.05;84.53;99830.27;104715;1318;22314;-66
2021/12/30 07:57:32;;;;;;;76.10;30.80;;;;;;;-4.04;84.39;99840.14;104495;1318;138693;-65
2021/12/30 08:00:00;;;;;;;65.80;30.80;;;;;;;-4.04;84.49;99847.52;104697;1316;22552;-66
2021/12/30 08:02:27;;;;;;;68.00;28.20;;;;;;;-4.03;84.54;99855.58;104603;1316;139153;-67
2021/12/30 08:05:05;;;;;;;66.80;28.20;;;;;;;-4.01;84.69;99856.23;104605;1318;22550;-66
2021/12/30 08:07:34;;;;;;;63.10;28.60;;;;;;;-4.00;84.50;99858.64;104581;1317;22486;-66
2021/12/30 08:10:02;;;;;;;55.80;23.50;;;;;;;-4.00;84.55;99861.54;104647;1316;139583;-66
2021/12/30 08:12:31;;;;;;;43.80;20.50;;;;;;;-3.98;84.47;99862.12;104644;1317;22432;-65
2021/12/30 08:14:59;;;;;;;55.10;24.40;;;;;;;-3.97;84.40;99858.30;101339;1313;139369;-66
2021/12/30 08:17:27;;;;;;;50.10;23.80;;;;;;;-3.95;84.36;99856.75;101367;1316;22581;-65
2021/12/30 08:19:55;;;;;;;49.10;25.10;;;;;;;-3.94;84.36;99854.66;101280;1316;138086;-65
2021/12/30 08:22:24;;;;;;;53.30;24.60;;;;;;;-3.93;84.04;99853.31;101411;1316;22696;-66
2021/12/30 08:24:52;;;;;;;43.30;21.50;;;;;;;-3.93;83.91;99856.90;101274;1316;22627;-65
2021/12/30 08:27:20;;;;;;;46.20;23.20;;;;;;;-3.93;83.96;99854.91;101103;1316;138274;-64
2021/12/30 08:29:49;;;;;;;45.90;21.90;;;;;;;-3.92;83.79;99854.44;104679;1316;23262;-66
2021/12/30 08:32:17;;;;;;;42.70;21.00;;;;;;;-3.90;83.80;99850.04;104563;1318;138185;-67
2021/12/30 08:34:44;;;;;;;45.70;20.80;;;;;;;-3.89;83.81;99844.04;104722;1318;22436;-67
2021/12/30 08:37:13;;;;;;;43.70;20.40;;;;;;;-3.88;83.65;99844.63;104649;1318;22470;-65
2021/12/30 08:39:41;;;;;;;38.80;18.00;;;;;;;-3.86;83.76;99843.21;104594;1316;138177;-66
2021/12/30 08:42:21;;;;;;;37.70;16.90;;;;;;;-3.86;83.47;99838.43;104696;1318;22532;-66
2021/12/30 08:44:50;;;;;;;36.70;17.80;;;;;;;-3.85;83.53;99839.75;104570;1316;137841;-66
2021/12/30 08:47:18;;;;;;;41.80;19.90;;;;;;;-3.84;83.34;99846.20;101803;1316;24394;-66
2021/12/30 08:49:46;;;;;;;42.50;18.90;;;;;;;-3.81;83.16;99851.95;101128;1316;138673;-63
2021/12/30 08:52:16;;;;;;;39.70;20.10;;;;;;;-3.79;83.22;99849.96;101206;1316;22615;-65
2021/12/30 08:54:44;;;;;;;45.20;21.60;;;;;;;-3.77;83.10;99853.50;104685;1316;22423;-66
2021/12/30 08:57:12;;;;;;;37.60;19.90;;;;;;;-3.75;83.04;99856.83;104599;1317;139771;-66
2021/12/30 08:59:40;;;;;;;39.00;17.80;;;;;;;-3.74;82.89;99853.38;104742;1316;23051;-66
2021/12/30 09:02:11;;;;;;;37.40;17.60;;;;;;;-3.72;82.75;99852.98;104515;1316;138761;-66
2021/12/30 09:04:42;;;;;;;36.70;19.20;;;;;;;-3.69;82.65;99851.58;104702;1316;22499;-66
2021/12/30 09:07:10;;;;;;;38.10;18.10;;;;;;;-3.67;82.45;99847.42;104717;1318;22631;-66
2021/12/30 09:09:43;;;;;;;34.20;17.10;;;;;;;-3.64;82.43;99851.27;104578;1316;139080;-66
2021/12/30 09:12:11;;;;;;;35.60;16.50;;;;;;;-3.62;82.20;99856.31;104727;1317;23141;-66
2021/12/30 09:14:39;;;;;;;28.40;14.90;;;;;;;-3.61;82.16;99851.74;104497;1317;138245;-66
2021/12/30 09:17:07;;;;;;;34.20;17.00;;;;;;;-3.59;82.08;99852.80;101836;1318;22606;-65
2021/12/30 09:19:35;;;;;;;36.90;17.60;;;;;;;-3.57;82.01;99857.58;104647;1316;23484;-66
2021/12/30 09:23:46;;;;;;;33.80;18.00;;;;;;;-3.54;81.91;99861.16;98838;1351;545242;-65
2021/12/30 09:26:14;;;;;;;31.10;17.50;;;;;;;-3.53;81.69;99864.48;103862;1329;136867;-66
2021/12/30 09:28:42;;;;;;;35.60;16.30;;;;;;;-3.52;81.57;99857.64;104002;1332;22381;-66
2021/12/30 09:31:10;;;;;;;31.40;17.80;;;;;;;-3.51;81.52;99851.63;104007;1330;22506;-66
2021/12/30 09:33:46;;;;;;;32.40;16.80;;;;;;;-3.51;81.58;99847.90;103947;1329;136727;-66
2021/12/30 09:36:14;;;;;;;28.10;15.50;;;;;;;-3.50;81.38;99849.27;103943;1332;125800;-66
2021/12/30 09:38:42;;;;;;;32.80;17.90;;;;;;;-3.51;81.35;99841.55;103956;1328;138981;-66
2021/12/30 09:41:19;;;;;;;29.40;16.40;;;;;;;-3.53;81.19;99842.45;104038;1328;22544;-66
2021/12/30 09:43:47;;;;;;;30.70;15.80;;;;;;;-3.56;81.09;99835.45;103972;1328;139153;-66
2021/12/30 09:46:16;;;;;;;27.40;14.00;;;;;;;-3.54;80.97;99835.96;104066;1328;22568;-66
2021/12/30 09:48:44;;;;;;;23.80;13.00;;;;;;;-3.53;81.02;99832.37;104224;1323;22558;-66
2021/12/30 09:51:12;;;;;;;27.10;14.20;;;;;;;-3.52;81.02;99831.02;104339;1322;137813;-66
2021/12/30 09:53:40;;;;;;;22.80;12.40;;;;;;;-3.52;81.07;99829.52;104383;1320;23402;-66
2021/12/30 09:56:08;;;;;;;24.10;13.30;;;;;;;-3.49;80.81;99827.84;104414;1321;138092;-66
2021/12/30 09:58:36;;;;;;;24.50;13.90;;;;;;;-3.48;80.83;99824.20;104371;1322;22319;-67
2021/12/30 10:01:05;;;;;;;27.20;14.70;;;;;;;-3.47;80.75;99831.51;104332;1322;22663;-67
2021/12/30 10:03:35;;;;;;;24.90;15.60;;;;;;;-3.45;80.87;99828.23;104244;1321;137054;-67
2021/12/30 10:06:09;;;;;;;25.40;13.80;;;;;;;-3.44;80.88;99822.98;104467;1322;23115;-67
2021/12/30 10:08:42;;;;;;;28.60;15.00;;;;;;;-3.42;80.74;99824.05;104339;1320;139314;-66
2021/12/30 10:11:13;;;;;;;28.00;15.30;;;;;;;-3.43;80.79;99820.73;104390;1322;22553;-67
2021/12/30 10:13:52;;;;;;;27.20;14.50;;;;;;;-3.41;80.71;99829.09;104245;1322;137340;-66
2021/12/30 10:16:21;;;;;;;25.70;14.30;;;;;;;-3.41;80.53;99826.76;104467;1322;22518;-66
2021/12/30 10:18:55;;;;;;;22.80;14.20;;;;;;;-3.41;80.44;99822.39;104128;1322;23100;-66
2021/12/30 10:21:25;;;;;;;28.30;15.80;;;;;;;-3.42;80.34;99817.52;104262;1322;138143;-66
2021/12/30 10:23:55;;;;;;;28.40;15.10;;;;;;;-3.43;80.38;99811.40;104454;1320;22428;-66
2021/12/30 10:26:22;;;;;;;30.20;15.40;;;;;;;-3.46;80.30;99808.25;104293;1320;138157;-66
2021/12/30 10:28:54;;;;;;;31.30;17.20;;;;;;;-3.45;80.28;99801.83;104364;1322;22507;-66
2021/12/30 10:31:25;;;;;;;31.30;16.30;;;;;;;-3.47;80.36;99801.81;104389;1322;22527;-66
2021/12/30 10:33:54;;;;;;;28.60;15.20;;;;;;;-3.47;80.38;99804.36;104389;1321;137770;-66
2021/12/30 10:36:29;;;;;;;22.80;13.00;;;;;;;-3.46;80.42;99807.94;104344;1321;22583;-67
2021/12/30 10:39:19;;;;;;;23.10;12.60;;;;;;;-3.46;80.30;99808.79;104260;1322;138888;-68
2021/12/30 10:42:16;;;;;;;27.20;12.60;;;;;;;-3.44;80.34;99802.04;104284;1322;22446;-68
2021/12/30 10:44:55;;;;;;;28.20;14.40;;;;;;;-3.41;80.42;99797.80;104184;1322;138142;-68
2021/12/30 10:47:28;;;;;;;29.50;14.70;;;;;;;-3.40;80.29;99794.39;104337;1322;22442;-67
2021/12/30 10:50:07;;;;;;;26.50;14.60;;;;;;;-3.41;80.14;99785.57;104211;1322;138037;-67
2021/12/30 10:52:46;;;;;;;31.30;16.30;;;;;;;-3.44;80.01;99780.77;104300;1322;23121;-67
2021/12/30 10:55:14;;;;;;;28.90;15.50;;;;;;;-3.49;79.87;99782.52;104299;1323;22564;-67
2021/12/30 10:57:42;;;;;;;29.40;15.20;;;;;;;-3.52;79.81;99779.85;104256;1321;137184;-67
2021/12/30 11:00:22;;;;;;;29.40;15.40;;;;;;;-3.54;79.79;99772.41;104481;1320;22492;-67
2021/12/30 11:02:50;;;;;;;32.00;15.90;;;;;;;-3.56;79.80;99766.89;104130;1322;138158;-67
2021/12/30 11:05:19;;;;;;;28.40;14.40;;;;;;;-3.57;79.80;99767.34;104239;1322;22332;-67
2021/12/30 11:08:00;;;;;;;26.90;14.70;;;;;;;-3.57;79.80;99762.58;104250;1322;138271;-67
2021/12/30 11:10:33;;;;;;;24.60;13.50;;;;;;;-3.56;79.79;99764.98;104495;1322;22571;-65
2021/12/30 11:13:12;;;;;;;23.80;13.40;;;;;;;-3.53;79.81;99762.23;104328;1322;22433;-66
2021/12/30 11:15:40;;;;;;;38.10;17.40;;;;;;;-3.49;80.06;99757.16;104270;1322;137698;-66
2021/12/30 11:18:11;;;;;;;38.60;17.00;;;;;;;-3.44;79.95;99760.02;104373;1320;22515;-66
2021/12/30 11:20:43;;;;;;;34.40;15.90;;;;;;;-3.42;79.90;99758.89;104317;1321;137758;-66
2021/12/30 11:23:14;;;;;;;32.10;17.00;;;;;;;-3.41;79.88;99755.77;104343;1322;23105;-66